Time;durP1;ratioP1;P1;durP2;ratioP2;P2;SDS_P1;SDS_P2;PMS_P1;PMS_P2;Temp;Humidity;BMP_temperature;BMP_pressure;BME280_temperature;BME280_humidity;BME280_pressure;Samples;Min_cycle;Max_cycle;Signal;HPM_P1;HPM_P2
2022/11/26 00:02:27;;;;;;;0.80;0.80;;;;;;;-6.36;91.96;100541.34;4996542;28;20054;-83
2022/11/26 00:04:55;;;;;;;0.80;0.80;;;;;;;-6.46;91.79;100535.81;5013703;28;20046;-83
2022/11/26 00:07:25;;;;;;;0.90;0.90;;;;;;;-6.41;91.99;100549.50;5013640;28;20060;-82
2022/11/26 00:09:54;;;;;;;0.70;0.70;;;;;;;-6.40;91.96;100553.84;5013540;28;20103;-83
2022/11/26 00:12:24;;;;;;;0.65;0.65;;;;;;;-6.35;92.07;100556.16;5013510;28;20461;-82
2022/11/26 00:14:51;;;;;;;0.90;0.90;;;;;;;-6.32;92.25;100555.97;4996116;28;20050;-83
2022/11/26 00:17:19;;;;;;;0.63;0.63;;;;;;;-6.34;92.00;100544.72;5013665;28;20057;-82
2022/11/26 00:19:46;;;;;;;0.60;0.60;;;;;;;-6.35;92.13;100554.38;4996548;28;20052;-83
2022/11/26 00:22:23;;;;;;;0.75;0.75;;;;;;;-6.33;92.03;100552.50;5013744;28;20057;-83
2022/11/26 00:24:51;;;;;;;0.82;0.82;;;;;;;-6.34;92.09;100552.59;4996025;28;20156;-82
2022/11/26 00:27:19;;;;;;;0.70;0.70;;;;;;;-6.35;92.07;100546.50;5012059;28;20057;-84
2022/11/26 00:29:46;;;;;;;0.77;0.77;;;;;;;-6.34;92.21;100552.59;4992058;28;20060;-83
2022/11/26 00:32:15;;;;;;;0.88;0.88;;;;;;;-6.30;91.89;100548.84;4993717;28;20444;-83
2022/11/26 00:34:45;;;;;;;0.60;0.60;;;;;;;-6.35;91.97;100543.88;4992570;28;20101;-82
2022/11/26 00:37:25;;;;;;;0.75;0.75;;;;;;;-6.34;91.90;100545.53;5008154;28;20046;-82
2022/11/26 00:39:52;;;;;;;0.70;0.70;;;;;;;-6.42;92.18;100539.94;5008619;28;20042;-82
2022/11/26 00:42:20;;;;;;;0.70;0.70;;;;;;;-6.38;92.07;100551.09;4993489;28;20081;-82
2022/11/26 00:44:47;;;;;;;0.88;0.88;;;;;;;-6.37;92.02;100544.91;4992429;28;20499;-82
2022/11/26 00:47:14;;;;;;;0.90;0.90;;;;;;;-6.37;92.22;100545.75;4991741;28;20430;-84
2022/11/26 00:49:42;;;;;;;0.70;0.70;;;;;;;-6.32;92.40;100540.19;4993316;28;20532;-83
2022/11/26 00:52:48;;;;;;;0.93;0.93;;;;;;;-6.26;92.42;100531.06;4993205;28;20053;-83
2022/11/26 00:55:20;;;;;;;0.80;0.80;;;;;;;-6.26;92.14;100542.41;4932816;29;20062;-83
2022/11/26 00:57:47;;;;;;;0.80;0.80;;;;;;;-6.28;92.33;100546.94;4934165;29;20450;-83
2022/11/26 01:00:17;;;;;;;0.75;0.75;;;;;;;-6.30;92.05;100542.72;4933484;29;20062;-82
2022/11/26 01:02:44;;;;;;;0.80;0.80;;;;;;;-6.28;92.21;100554.81;4934313;29;20171;-83
2022/11/26 01:05:12;;;;;;;0.73;0.73;;;;;;;-6.29;91.91;100555.75;4934765;29;20059;-84
2022/11/26 01:07:40;;;;;;;0.80;0.80;;;;;;;-6.32;92.09;100548.91;4934844;29;20051;-82
2022/11/26 01:10:34;;;;;;;0.90;0.90;;;;;;;-6.26;92.21;100559.97;4918119;29;20056;-83
2022/11/26 01:13:09;;;;;;;0.70;0.70;;;;;;;-6.38;92.16;100551.97;4934448;29;20052;-82
2022/11/26 01:15:36;;;;;;;0.70;0.70;;;;;;;-6.29;92.28;100558.38;4916677;29;20185;-82
2022/11/26 01:18:12;;;;;;;0.63;0.63;;;;;;;-6.29;92.26;100566.28;4916910;29;20051;-82
2022/11/26 01:20:40;;;;;;;0.80;0.80;;;;;;;-6.28;92.13;100567.94;4932582;29;20546;-82
2022/11/26 01:23:10;;;;;;;0.80;0.80;;;;;;;-6.32;91.91;100563.84;4932983;29;20063;-83
2022/11/26 01:25:38;;;;;;;0.90;0.90;;;;;;;-6.34;92.02;100568.34;4939236;28;20623;-83
2022/11/26 01:28:16;;;;;;;0.70;0.70;;;;;;;-6.35;92.10;100558.81;4991447;28;20050;-83
2022/11/26 01:30:44;;;;;;;0.68;0.68;;;;;;;-6.30;91.79;100567.22;5008834;28;20054;-83
2022/11/26 01:33:11;;;;;;;0.80;0.80;;;;;;;-6.32;91.71;100561.22;5012528;28;20425;-82
2022/11/26 01:35:38;;;;;;;0.80;0.80;;;;;;;-6.29;91.70;100557.56;5011973;28;20045;-82
2022/11/26 01:38:08;;;;;;;1.00;1.00;;;;;;;-6.32;91.70;100562.06;5012162;28;20140;-82
2022/11/26 01:40:43;;;;;;;0.93;0.93;;;;;;;-6.35;91.71;100558.81;4994529;28;20145;-82
2022/11/26 01:43:19;;;;;;;1.10;1.10;;;;;;;-6.32;91.56;100566.47;5012755;28;20038;-83
2022/11/26 01:45:46;;;;;;;0.80;0.80;;;;;;;-6.29;91.84;100562.81;5011071;28;20077;-83
2022/11/26 01:48:27;;;;;;;0.80;0.80;;;;;;;-6.23;91.75;100563.25;5012443;28;20054;-83
2022/11/26 01:51:08;;;;;;;0.70;0.70;;;;;;;-6.20;91.51;100557.81;5011960;28;20053;-83
2022/11/26 01:53:40;;;;;;;0.60;0.60;;;;;;;-6.24;91.65;100560.72;4994538;28;20056;-83
2022/11/26 01:56:30;;;;;;;0.80;0.80;;;;;;;-6.21;91.75;100566.63;5012027;28;20050;-83
2022/11/26 01:59:13;;;;;;;0.73;0.73;;;;;;;-6.17;91.68;100562.03;4995048;28;20443;-82
2022/11/26 02:01:40;;;;;;;0.82;0.82;;;;;;;-6.18;91.72;100561.19;5011852;28;20080;-81
2022/11/26 02:04:30;;;;;;;0.80;0.80;;;;;;;-6.14;91.60;100560.03;5011721;28;20046;-83
2022/11/26 02:06:57;;;;;;;0.63;0.63;;;;;;;-6.17;91.48;100556.78;4994148;28;20053;-83
2022/11/26 02:09:25;;;;;;;0.90;0.90;;;;;;;-6.13;91.67;100556.47;4993839;28;20084;-83
2022/11/26 02:11:52;;;;;;;0.70;0.70;;;;;;;-6.12;91.44;100549.44;4993218;28;20666;-83
2022/11/26 02:14:25;;;;;;;0.88;0.88;;;;;;;-6.12;91.49;100552.06;4993368;28;20045;-82
2022/11/26 02:17:10;;;;;;;0.77;0.77;;;;;;;-6.11;91.59;100551.94;4993891;28;20061;-83
2022/11/26 02:20:02;;;;;;;0.85;0.85;;;;;;;-6.14;91.49;100554.78;4993879;28;20062;-83
2022/11/26 02:22:29;;;;;;;0.80;0.80;;;;;;;-6.15;91.47;100550.47;5010950;28;20057;-83
2022/11/26 02:25:34;;;;;;;0.70;0.70;;;;;;;-6.12;91.36;100560.78;5018746;28;20133;-82
2022/11/26 02:28:12;;;;;;;0.70;0.70;;;;;;;-6.16;91.30;100569.78;5031637;28;20144;-83
2022/11/26 02:30:42;;;;;;;0.80;0.80;;;;;;;-6.16;91.22;100571.59;5031522;28;20183;-82
2022/11/26 02:33:38;;;;;;;0.70;0.70;;;;;;;-6.16;91.25;100569.78;4999893;28;20076;-83
2022/11/26 02:36:10;;;;;;;0.60;0.60;;;;;;;-6.12;91.10;100571.28;5034482;28;20057;-82
2022/11/26 02:38:38;;;;;;;0.80;0.80;;;;;;;-6.09;91.29;100577.28;5040579;28;20057;-83
2022/11/26 02:41:05;;;;;;;0.95;0.95;;;;;;;-6.09;91.36;100570.25;5030903;28;20460;-83
2022/11/26 02:43:33;;;;;;;0.85;0.85;;;;;;;-6.10;91.17;100573.84;5030405;28;20071;-83
2022/11/26 02:46:05;;;;;;;0.80;0.80;;;;;;;-6.08;91.11;100577.19;4997027;28;20080;-82
2022/11/26 02:48:40;;;;;;;0.80;0.80;;;;;;;-6.15;91.00;100571.50;5013376;28;20087;-83
2022/11/26 02:51:12;;;;;;;0.70;0.70;;;;;;;-6.11;91.19;100580.84;5030447;28;20619;-83
2022/11/26 02:53:39;;;;;;;1.00;1.00;;;;;;;-6.08;90.89;100578.97;5012936;28;20152;-82
2022/11/26 02:56:14;;;;;;;0.93;0.93;;;;;;;-6.16;90.72;100579.47;4980531;28;20088;-83
2022/11/26 02:58:42;;;;;;;0.80;0.80;;;;;;;-6.21;90.73;100578.91;5012914;28;20144;-83
2022/11/26 03:01:15;;;;;;;0.75;0.75;;;;;;;-6.22;90.70;100575.47;5030729;28;20594;-83
2022/11/26 03:03:46;;;;;;;0.93;0.93;;;;;;;-6.23;90.99;100579.00;5013841;28;20154;-83
2022/11/26 03:06:14;;;;;;;0.90;0.90;;;;;;;-6.24;90.88;100577.34;5016026;28;20136;-83
2022/11/26 03:08:44;;;;;;;0.85;0.85;;;;;;;-6.17;90.79;100586.50;5015870;28;20053;-84
2022/11/26 03:11:12;;;;;;;0.80;0.80;;;;;;;-6.19;90.81;100593.66;5021302;28;20030;-82
2022/11/26 03:13:39;;;;;;;0.75;0.75;;;;;;;-6.16;90.83;100595.25;5041465;28;20496;-83
2022/11/26 03:16:06;;;;;;;0.80;0.80;;;;;;;-6.13;90.63;100595.03;5034923;28;20045;-83
2022/11/26 03:18:33;;;;;;;0.70;0.70;;;;;;;-6.16;90.33;100592.59;5015103;28;20049;-83
2022/11/26 03:21:00;;;;;;;0.80;0.80;;;;;;;-6.22;90.59;100599.09;5031050;28;20061;-83
2022/11/26 03:23:27;;;;;;;0.70;0.70;;;;;;;-6.21;90.42;100598.16;4999371;28;20045;-84
2022/11/26 03:25:54;;;;;;;0.80;0.80;;;;;;;-6.22;90.60;100596.47;5034211;28;20059;-82
2022/11/26 03:28:21;;;;;;;0.80;0.80;;;;;;;-6.25;90.66;100594.06;5034273;28;20084;-82
2022/11/26 03:30:50;;;;;;;0.70;0.70;;;;;;;-6.24;90.48;100595.72;5033985;28;20072;-82
2022/11/26 03:33:18;;;;;;;0.80;0.80;;;;;;;-6.27;90.10;100590.69;5033962;28;20061;-82
2022/11/26 03:35:47;;;;;;;0.70;0.70;;;;;;;-6.24;90.59;100589.63;5034199;28;20073;-82
2022/11/26 03:38:14;;;;;;;0.70;0.70;;;;;;;-6.29;90.36;100583.84;5034018;28;20046;-82
2022/11/26 03:40:42;;;;;;;0.77;0.77;;;;;;;-6.26;90.41;100594.97;5033792;28;20571;-83
2022/11/26 03:43:09;;;;;;;0.80;0.80;;;;;;;-6.29;90.41;100599.59;5033689;28;20144;-82
2022/11/26 03:45:36;;;;;;;0.70;0.70;;;;;;;-6.40;90.25;100595.88;5033600;28;20049;-83
2022/11/26 03:48:03;;;;;;;0.80;0.80;;;;;;;-6.35;90.47;100612.19;5033857;28;20530;-83
2022/11/26 03:50:30;;;;;;;0.73;0.73;;;;;;;-6.42;90.63;100604.78;5016203;28;20420;-82
2022/11/26 03:52:57;;;;;;;0.80;0.80;;;;;;;-6.42;90.56;100610.88;5016516;28;20103;-83
2022/11/26 03:55:24;;;;;;;0.90;0.90;;;;;;;-6.42;90.37;100617.91;4999165;28;20140;-83
2022/11/26 03:57:51;;;;;;;0.70;0.70;;;;;;;-6.45;90.31;100608.44;5033600;28;20077;-83
2022/11/26 04:00:19;;;;;;;0.77;0.77;;;;;;;-6.42;90.22;100607.41;5015522;28;20061;-83
2022/11/26 04:02:46;;;;;;;0.63;0.63;;;;;;;-6.44;90.25;100609.28;5033703;28;20068;-83
2022/11/26 04:05:13;;;;;;;0.88;0.88;;;;;;;-6.42;90.17;100610.03;5033728;28;20073;-83
2022/11/26 04:07:40;;;;;;;0.60;0.60;;;;;;;-6.42;90.03;100616.13;5033424;28;20061;-83
2022/11/26 04:10:08;;;;;;;0.90;0.90;;;;;;;-6.39;89.98;100609.84;5015474;28;20049;-83
2022/11/26 04:12:35;;;;;;;0.63;0.63;;;;;;;-6.37;89.90;100615.84;5032860;28;20132;-83
2022/11/26 04:15:03;;;;;;;0.80;0.80;;;;;;;-6.37;89.49;100621.94;5033251;28;20053;-82
2022/11/26 04:17:30;;;;;;;0.60;0.60;;;;;;;-6.42;89.32;100620.56;5014062;28;20049;-82
2022/11/26 04:19:57;;;;;;;0.70;0.70;;;;;;;-6.41;89.26;100633.56;5024640;28;20140;-83
2022/11/26 04:22:25;;;;;;;0.80;0.80;;;;;;;-6.42;89.01;100626.63;5013074;28;20100;-82
2022/11/26 04:24:52;;;;;;;0.73;0.73;;;;;;;-6.48;89.00;100620.91;5013996;28;20145;-83
2022/11/26 04:27:19;;;;;;;0.90;0.90;;;;;;;-6.50;88.92;100626.28;5023262;28;20093;-83
2022/11/26 04:29:46;;;;;;;0.60;0.60;;;;;;;-6.50;88.65;100628.06;5013518;28;20121;-83
2022/11/26 04:32:13;;;;;;;0.80;0.80;;;;;;;-6.52;88.62;100619.44;4995825;28;20065;-83
2022/11/26 04:34:40;;;;;;;0.82;0.82;;;;;;;-6.58;88.37;100610.16;5012165;28;20065;-83
2022/11/26 04:37:07;;;;;;;0.90;0.90;;;;;;;-6.58;88.30;100620.66;5013120;28;20046;-82
2022/11/26 04:39:47;;;;;;;0.88;0.88;;;;;;;-6.56;88.21;100627.50;5013172;28;20054;-83
2022/11/26 04:42:15;;;;;;;0.80;0.80;;;;;;;-6.58;88.22;100621.50;5013093;28;20654;-82
2022/11/26 04:44:42;;;;;;;0.90;0.90;;;;;;;-6.54;88.02;100630.88;4994989;28;20487;-83
2022/11/26 04:47:09;;;;;;;0.68;0.68;;;;;;;-6.52;88.08;100635.19;4995432;28;20046;-82
2022/11/26 04:49:36;;;;;;;0.90;0.90;;;;;;;-6.51;88.01;100640.34;4994825;28;20054;-83
2022/11/26 04:52:03;;;;;;;0.90;0.90;;;;;;;-6.52;87.98;100643.06;4995367;28;20049;-82
2022/11/26 04:54:30;;;;;;;0.75;0.75;;;;;;;-6.52;87.89;100629.94;5019932;28;20049;-82
2022/11/26 04:56:57;;;;;;;0.73;0.73;;;;;;;-6.55;87.93;100641.50;5031751;28;20053;-83
2022/11/26 04:59:25;;;;;;;0.80;0.80;;;;;;;-6.56;88.04;100638.03;5004521;28;20041;-83
2022/11/26 05:01:51;;;;;;;0.70;0.70;;;;;;;-6.54;88.09;100635.28;5017118;28;20072;-84
2022/11/26 05:04:19;;;;;;;0.90;0.90;;;;;;;-6.52;88.19;100640.44;5027844;28;20100;-83
2022/11/26 05:06:46;;;;;;;0.63;0.63;;;;;;;-6.51;88.09;100634.25;5005183;28;20077;-82
2022/11/26 05:09:20;;;;;;;0.75;0.75;;;;;;;-6.55;87.82;100637.06;5005468;28;20060;-83
2022/11/26 05:11:47;;;;;;;0.70;0.70;;;;;;;-6.53;88.23;100639.63;5009234;28;20058;-83
2022/11/26 05:14:15;;;;;;;0.90;0.90;;;;;;;-6.55;87.89;100633.59;5019001;28;20084;-82
2022/11/26 05:16:42;;;;;;;0.90;0.90;;;;;;;-6.52;87.95;100643.06;5023149;28;20584;-88
2022/11/26 05:19:10;;;;;;;0.80;0.80;;;;;;;-6.53;87.83;100639.63;5024441;28;20045;-82
2022/11/26 05:21:37;;;;;;;0.90;0.90;;;;;;;-6.53;87.95;100650.13;5019098;28;20054;-83
2022/11/26 05:24:04;;;;;;;0.70;0.70;;;;;;;-6.56;88.08;100640.66;5018476;28;20045;-83
2022/11/26 05:26:32;;;;;;;0.90;0.90;;;;;;;-6.58;88.03;100632.00;5005204;28;20077;-82
2022/11/26 05:28:59;;;;;;;0.73;0.73;;;;;;;-6.54;87.98;100633.50;5012675;28;20400;-82
2022/11/26 05:31:27;;;;;;;1.00;1.00;;;;;;;-6.55;88.17;100644.94;5018541;28;20056;-81
2022/11/26 05:33:54;;;;;;;0.90;0.90;;;;;;;-6.47;88.34;100654.97;5022520;28;20053;-82
2022/11/26 05:36:21;;;;;;;1.10;1.10;;;;;;;-6.42;88.26;100650.28;5002259;28;20085;-81
2022/11/26 05:38:48;;;;;;;0.90;0.90;;;;;;;-6.43;88.27;100663.50;5013464;28;20042;-83
2022/11/26 05:41:19;;;;;;;0.90;0.90;;;;;;;-6.42;88.33;100659.97;5016638;28;20060;-81
2022/11/26 05:43:46;;;;;;;0.90;0.90;;;;;;;-6.41;87.71;100664.25;5028182;28;20053;-81
2022/11/26 05:46:21;;;;;;;0.80;0.80;;;;;;;-6.43;87.90;100672.25;5030251;28;20061;-81
2022/11/26 05:48:49;;;;;;;1.00;1.00;;;;;;;-6.39;88.05;100672.91;5031551;28;20081;-83
2022/11/26 05:51:18;;;;;;;0.82;0.82;;;;;;;-6.42;87.81;100662.59;5020355;28;20053;-84
2022/11/26 05:53:45;;;;;;;0.70;0.70;;;;;;;-6.47;87.85;100665.50;5022174;28;20128;-82
2022/11/26 05:56:12;;;;;;;0.90;0.90;;;;;;;-6.49;87.76;100672.63;5020693;28;20504;-82
2022/11/26 05:58:41;;;;;;;0.70;0.70;;;;;;;-6.53;87.85;100668.50;5026018;28;20045;-82
2022/11/26 06:01:09;;;;;;;0.80;0.80;;;;;;;-6.50;87.92;100676.19;5013169;28;20140;-82
2022/11/26 06:03:37;;;;;;;0.77;0.77;;;;;;;-6.48;87.62;100676.09;5024183;28;20136;-82
2022/11/26 06:06:04;;;;;;;0.63;0.63;;;;;;;-6.56;87.78;100666.91;5019117;28;20042;-82
2022/11/26 06:08:34;;;;;;;0.90;0.90;;;;;;;-6.56;87.85;100676.56;4992343;28;20049;-83
2022/11/26 06:11:02;;;;;;;0.65;0.65;;;;;;;-6.60;87.48;100678.53;5010772;28;20061;-83
2022/11/26 06:13:29;;;;;;;0.90;0.90;;;;;;;-6.69;87.83;100673.00;4994717;28;20066;-83
2022/11/26 06:15:56;;;;;;;0.82;0.82;;;;;;;-6.64;88.07;100682.28;5020373;28;20064;-82
2022/11/26 06:18:23;;;;;;;1.00;1.00;;;;;;;-6.62;88.06;100677.78;5040247;28;20121;-82
2022/11/26 06:20:50;;;;;;;0.70;0.70;;;;;;;-6.65;87.76;100677.13;5027803;28;20053;-83
2022/11/26 06:23:19;;;;;;;0.90;0.90;;;;;;;-6.58;87.90;100684.53;5016944;28;20053;-82
2022/11/26 06:25:47;;;;;;;0.77;0.77;;;;;;;-6.55;88.01;100686.97;5016905;28;20050;-83
2022/11/26 06:28:14;;;;;;;0.73;0.73;;;;;;;-6.49;88.00;100692.78;5015756;28;20049;-83
2022/11/26 06:30:43;;;;;;;0.82;0.82;;;;;;;-6.54;87.58;100686.03;5015411;28;20069;-83
2022/11/26 06:33:13;;;;;;;0.70;0.70;;;;;;;-6.60;87.42;100686.41;5000566;28;20045;-84
2022/11/26 06:35:42;;;;;;;0.93;0.93;;;;;;;-6.70;87.43;100684.44;5016343;28;20057;-85
2022/11/26 06:38:12;;;;;;;0.95;0.95;;;;;;;-6.72;87.57;100684.53;4998893;28;20452;-86
2022/11/26 06:40:40;;;;;;;1.10;1.10;;;;;;;-6.71;87.47;100691.47;5016606;28;20053;-84
2022/11/26 06:43:08;;;;;;;0.80;0.80;;;;;;;-6.66;87.59;100693.81;5002578;28;20050;-83
2022/11/26 06:45:37;;;;;;;0.70;0.70;;;;;;;-6.68;87.30;100690.44;5021110;28;20132;-83
2022/11/26 06:48:05;;;;;;;0.70;0.70;;;;;;;-6.67;87.05;100695.59;5010889;28;20136;-84
2022/11/26 06:50:32;;;;;;;0.60;0.60;;;;;;;-6.66;87.38;100702.56;4992784;28;20050;-83
2022/11/26 06:52:59;;;;;;;1.00;1.00;;;;;;;-6.63;87.21;100701.53;5010214;28;20068;-83
2022/11/26 06:55:29;;;;;;;0.68;0.68;;;;;;;-6.66;87.01;100706.94;5028911;28;20143;-83
2022/11/26 06:57:59;;;;;;;0.70;0.70;;;;;;;-6.61;86.81;100708.38;5024521;28;20057;-83
2022/11/26 07:00:28;;;;;;;0.77;0.77;;;;;;;-6.54;87.03;100711.47;5000001;28;20511;-84
2022/11/26 07:02:55;;;;;;;0.90;0.90;;;;;;;-6.49;87.00;100709.41;5010219;28;20056;-85
2022/11/26 07:05:22;;;;;;;0.70;0.70;;;;;;;-6.55;86.65;100705.38;5010569;28;20064;-83
2022/11/26 07:07:49;;;;;;;0.70;0.70;;;;;;;-6.51;86.90;100718.31;5010194;28;20085;-82
2022/11/26 07:10:17;;;;;;;0.60;0.60;;;;;;;-6.48;86.68;100710.22;5017227;28;20143;-83
2022/11/26 07:12:44;;;;;;;0.70;0.70;;;;;;;-6.43;86.56;100716.06;5017500;28;20058;-82
2022/11/26 07:15:11;;;;;;;0.80;0.80;;;;;;;-6.44;86.54;100714.38;4985099;28;20540;-82
2022/11/26 07:17:38;;;;;;;0.80;0.80;;;;;;;-6.46;86.33;100718.88;4994366;28;20052;-83
2022/11/26 07:20:06;;;;;;;0.73;0.73;;;;;;;-6.44;86.33;100717.00;5010503;28;20057;-83
2022/11/26 07:22:35;;;;;;;0.80;0.80;;;;;;;-6.48;86.47;100716.34;4993851;28;20059;-84
2022/11/26 07:25:06;;;;;;;0.80;0.80;;;;;;;-6.39;86.53;100725.44;4998278;28;20140;-87
2022/11/26 07:27:39;;;;;;;0.90;0.90;;;;;;;-6.32;86.56;100726.75;5019253;28;20116;-83
2022/11/26 07:30:07;;;;;;;0.65;0.65;;;;;;;-6.30;86.09;100726.66;5021553;28;20066;-84
2022/11/26 07:32:34;;;;;;;0.77;0.77;;;;;;;-6.25;86.14;100725.44;5021362;28;20064;-86
2022/11/26 07:35:02;;;;;;;0.80;0.80;;;;;;;-6.22;86.18;100730.50;5021048;28;20050;-85
2022/11/26 07:37:45;;;;;;;0.80;0.80;;;;;;;-6.22;86.04;100730.50;5018338;28;20559;-85
2022/11/26 07:40:13;;;;;;;0.70;0.70;;;;;;;-6.20;86.22;100722.50;5021680;28;20054;-86
2022/11/26 07:42:40;;;;;;;0.60;0.60;;;;;;;-6.16;86.09;100742.41;4979866;28;20046;-86
2022/11/26 07:45:07;;;;;;;0.70;0.70;;;;;;;-6.24;85.77;100735.00;4984855;28;20100;-88
2022/11/26 07:47:35;;;;;;;0.88;0.88;;;;;;;-6.33;85.73;100725.91;4993285;28;20140;-87
2022/11/26 07:50:03;;;;;;;0.80;0.80;;;;;;;-6.23;85.65;100736.69;5032577;28;20069;-86
2022/11/26 07:52:30;;;;;;;0.85;0.85;;;;;;;-6.24;85.68;100727.13;5003632;28;20134;-85
2022/11/26 07:54:57;;;;;;;1.00;1.00;;;;;;;-6.27;85.52;100739.63;5020878;28;20586;-85
2022/11/26 07:57:38;;;;;;;0.80;0.80;;;;;;;-6.41;85.69;100730.78;5006029;28;20096;-85
2022/11/26 08:00:06;;;;;;;0.70;0.70;;;;;;;-6.33;85.79;100723.28;5020227;28;20129;-86
2022/11/26 08:02:38;;;;;;;0.73;0.73;;;;;;;-6.24;85.42;100742.06;5007975;28;20057;-87
2022/11/26 08:05:05;;;;;;;0.75;0.75;;;;;;;-6.25;85.72;100722.81;5014024;28;20064;-84
2022/11/26 08:07:34;;;;;;;0.82;0.82;;;;;;;-6.15;85.72;100739.72;4998904;28;20147;-85
2022/11/26 08:10:02;;;;;;;0.70;0.70;;;;;;;-6.13;85.75;100731.72;5012444;28;20411;-86
2022/11/26 08:12:29;;;;;;;0.70;0.70;;;;;;;-6.09;85.73;100729.75;4995658;28;20054;-85
2022/11/26 08:14:56;;;;;;;0.98;0.98;;;;;;;-6.06;85.47;100734.81;5014052;28;20390;-84
2022/11/26 08:17:23;;;;;;;0.70;0.70;;;;;;;-6.03;85.33;100742.50;4996749;28;20046;-83
2022/11/26 08:19:50;;;;;;;0.80;0.80;;;;;;;-6.05;85.07;100739.13;5018719;28;20075;-83
2022/11/26 08:22:18;;;;;;;0.80;0.80;;;;;;;-6.01;85.10;100740.63;5015921;28;20099;-85
2022/11/26 08:24:48;;;;;;;0.88;0.88;;;;;;;-5.93;85.25;100739.16;5016180;28;20049;-84
2022/11/26 08:27:16;;;;;;;0.98;0.98;;;;;;;-5.96;84.95;100731.50;5002394;28;20046;-84
2022/11/26 08:29:46;;;;;;;0.70;0.70;;;;;;;-5.98;84.71;100738.63;4990146;28;20474;-84
2022/11/26 08:32:14;;;;;;;0.85;0.85;;;;;;;-5.89;84.87;100738.03;4994963;28;20116;-84
2022/11/26 08:34:42;;;;;;;0.77;0.77;;;;;;;-5.84;84.71;100740.38;4995928;28;20054;-83
2022/11/26 08:37:09;;;;;;;0.80;0.80;;;;;;;-5.79;84.58;100748.00;4997205;28;20054;-85
2022/11/26 08:39:38;;;;;;;0.75;0.75;;;;;;;-5.78;84.30;100745.25;5001825;28;20053;-85
2022/11/26 08:42:05;;;;;;;0.80;0.80;;;;;;;-5.70;84.34;100745.63;5000105;28;20054;-85
2022/11/26 08:44:33;;;;;;;0.70;0.70;;;;;;;-5.60;84.29;100745.00;5005096;28;20401;-86
2022/11/26 08:47:01;;;;;;;0.80;0.80;;;;;;;-5.60;83.95;100739.75;5001827;28;20076;-85
2022/11/26 08:49:31;;;;;;;0.60;0.60;;;;;;;-5.60;83.50;100742.38;5006336;28;20046;-85
2022/11/26 08:51:58;;;;;;;0.70;0.70;;;;;;;-5.60;83.79;100739.75;5009603;28;20544;-86
2022/11/26 08:54:26;;;;;;;0.70;0.70;;;;;;;-5.62;83.63;100741.63;5004372;28;20519;-84
2022/11/26 08:56:54;;;;;;;0.75;0.75;;;;;;;-5.68;83.92;100741.09;5012367;28;20062;-85
2022/11/26 08:59:23;;;;;;;0.70;0.70;;;;;;;-5.66;83.96;100733.94;5002625;28;21180;-84
2022/11/26 09:01:50;;;;;;;1.00;1.00;;;;;;;-5.59;83.86;100736.19;5004977;28;20046;-85
2022/11/26 09:04:17;;;;;;;0.82;0.82;;;;;;;-5.52;83.71;100738.34;5009797;28;20112;-85
2022/11/26 09:06:44;;;;;;;0.70;0.70;;;;;;;-5.49;83.48;100747.81;5006645;28;20092;-84
2022/11/26 09:09:11;;;;;;;0.80;0.80;;;;;;;-5.51;83.47;100744.44;5011908;28;20054;-86
2022/11/26 09:11:46;;;;;;;0.80;0.80;;;;;;;-5.59;83.39;100737.03;5006735;28;20446;-86
2022/11/26 09:14:24;;;;;;;0.80;0.80;;;;;;;-5.48;83.39;100745.06;4994870;28;20062;-86
2022/11/26 09:16:53;;;;;;;0.75;0.75;;;;;;;-5.43;83.19;100750.03;4996157;28;20118;-84
2022/11/26 09:19:27;;;;;;;0.70;0.70;;;;;;;-5.45;83.13;100751.91;5004117;28;20144;-86
2022/11/26 09:21:54;;;;;;;0.60;0.60;;;;;;;-5.46;83.16;100737.94;5005083;28;20076;-83
2022/11/26 09:24:21;;;;;;;0.60;0.60;;;;;;;-5.50;82.70;100740.84;5001968;28;20042;-85
2022/11/26 09:26:49;;;;;;;0.70;0.70;;;;;;;-5.54;82.88;100742.00;5001367;28;20516;-83
2022/11/26 09:29:19;;;;;;;0.85;0.85;;;;;;;-5.38;82.68;100749.75;5003105;28;20060;-83
2022/11/26 09:31:49;;;;;;;0.85;0.85;;;;;;;-5.43;82.63;100742.16;4995296;28;20062;-83
2022/11/26 09:34:38;;;;;;;0.80;0.80;;;;;;;-5.31;82.63;100745.78;4990123;28;20054;-83
2022/11/26 09:37:06;;;;;;;0.90;0.90;;;;;;;-5.28;82.24;100746.41;5019239;28;20508;-84
2022/11/26 09:39:33;;;;;;;0.68;0.68;;;;;;;-5.24;81.99;100749.69;4965345;28;20081;-85
2022/11/26 09:42:05;;;;;;;0.70;0.70;;;;;;;-5.25;82.09;100746.19;5010648;28;20049;-84
2022/11/26 09:44:53;;;;;;;0.70;0.70;;;;;;;-5.20;81.93;100740.63;4994545;28;20048;-84
2022/11/26 09:47:26;;;;;;;0.70;0.70;;;;;;;-5.19;81.90;100739.72;5027463;28;20050;-84
2022/11/26 09:50:12;;;;;;;0.77;0.77;;;;;;;-5.18;81.93;100746.66;4996254;28;20100;-85
2022/11/26 09:52:45;;;;;;;0.70;0.70;;;;;;;-5.13;82.00;100735.81;5027194;28;20076;-84
2022/11/26 09:55:27;;;;;;;0.77;0.77;;;;;;;-5.06;81.53;100737.13;5031719;28;20073;-83
2022/11/26 09:58:16;;;;;;;0.80;0.80;;;;;;;-5.16;81.50;100746.56;5008022;28;20473;-85
2022/11/26 10:00:51;;;;;;;0.90;0.90;;;;;;;-5.25;81.49;100750.63;4991765;28;20045;-83
2022/11/26 10:03:24;;;;;;;0.80;0.80;;;;;;;-5.28;81.81;100742.94;4994159;28;20057;-84
2022/11/26 10:06:27;;;;;;;0.93;0.93;;;;;;;-5.28;81.56;100735.03;4995992;28;20574;-84
2022/11/26 10:09:20;;;;;;;0.70;0.70;;;;;;;-5.30;81.38;100729.88;4997406;28;20062;-86
2022/11/26 10:12:06;;;;;;;0.90;0.90;;;;;;;-5.34;81.58;100733.66;4955934;28;20659;-84
2022/11/26 10:14:50;;;;;;;1.00;1.00;;;;;;;-5.39;81.62;100735.75;4960625;28;20753;-84
2022/11/26 10:17:41;;;;;;;0.80;0.80;;;;;;;-5.35;81.59;100739.84;4935042;29;20085;-84
2022/11/26 10:20:22;;;;;;;0.73;0.73;;;;;;;-5.35;81.36;100731.97;4951238;29;20059;-84
2022/11/26 10:22:50;;;;;;;0.80;0.80;;;;;;;-5.33;81.78;100737.97;4954257;28;20097;-84
2022/11/26 10:25:26;;;;;;;0.85;0.85;;;;;;;-5.24;81.53;100734.75;4959135;28;20051;-84
2022/11/26 10:27:55;;;;;;;0.70;0.70;;;;;;;-5.13;81.51;100747.19;4982295;28;20271;-85
2022/11/26 10:30:24;;;;;;;0.60;0.60;;;;;;;-5.08;81.34;100741.63;4972022;28;20065;-84
2022/11/26 10:32:53;;;;;;;0.68;0.68;;;;;;;-5.09;81.59;100742.56;4958964;28;20148;-83
2022/11/26 10:35:26;;;;;;;0.80;0.80;;;;;;;-5.06;81.46;100745.84;4952914;28;20059;-84
2022/11/26 10:37:54;;;;;;;0.80;0.80;;;;;;;-5.07;81.45;100732.78;4933479;29;20082;-84
2022/11/26 10:40:24;;;;;;;0.70;0.70;;;;;;;-4.99;81.27;100741.00;4959148;28;20591;-84
2022/11/26 10:43:02;;;;;;;0.70;0.70;;;;;;;-5.07;81.35;100745.94;4959160;28;20105;-85
2022/11/26 10:45:37;;;;;;;0.88;0.88;;;;;;;-5.20;81.60;100742.44;4943066;29;20458;-84
2022/11/26 10:48:14;;;;;;;;;;;;;;;-5.28;81.78;100751.69;4967948;28;20572;-84
2022/11/26 10:50:43;;;;;;;0.85;0.85;;;;;;;-5.34;82.01;100746.81;4992537;28;19932;-84
2022/11/26 10:53:21;;;;;;;0.73;0.73;;;;;;;-5.35;81.98;100744.28;4993325;28;20062;-84
2022/11/26 10:55:49;;;;;;;0.80;0.80;;;;;;;-5.43;81.93;100726.34;4994641;28;20054;-83
2022/11/26 10:58:23;;;;;;;0.65;0.65;;;;;;;-5.45;82.21;100741.41;4994126;28;20052;-85
2022/11/26 11:00:51;;;;;;;0.80;0.80;;;;;;;-5.52;82.45;100737.47;4991830;28;20046;-84
2022/11/26 11:03:49;;;;;;;0.73;0.73;;;;;;;-5.56;82.50;100746.53;4999172;28;20060;-84
2022/11/26 11:06:43;;;;;;;0.88;0.88;;;;;;;-5.59;82.75;100746.72;5010398;28;20136;-84
2022/11/26 11:09:28;;;;;;;0.80;0.80;;;;;;;-5.57;82.99;100744.81;5028126;28;20110;-84
2022/11/26 11:12:07;;;;;;;0.80;0.80;;;;;;;-5.57;83.19;100750.06;5010055;28;20508;-85
2022/11/26 11:14:34;;;;;;;0.60;0.60;;;;;;;-5.56;83.27;100751.78;4990868;28;20516;-84
2022/11/26 11:17:31;;;;;;;0.70;0.70;;;;;;;-5.57;83.38;100747.44;5008821;28;20149;-84
2022/11/26 11:20:03;;;;;;;0.80;0.80;;;;;;;-5.72;83.41;100733.47;4991035;28;20080;-83
2022/11/26 11:22:30;;;;;;;0.80;0.80;;;;;;;-5.72;83.52;100736.97;4990695;28;20085;-84
2022/11/26 11:24:59;;;;;;;0.90;0.90;;;;;;;-5.74;83.62;100736.22;4999415;28;20085;-83
2022/11/26 11:27:48;;;;;;;0.80;0.80;;;;;;;-5.74;83.89;100743.28;4998533;28;20486;-85
2022/11/26 11:30:27;;;;;;;0.65;0.65;;;;;;;-5.81;83.88;100742.81;4991460;28;20070;-85
2022/11/26 11:32:56;;;;;;;0.80;0.80;;;;;;;-5.86;83.88;100744.06;5008483;28;20100;-83
2022/11/26 11:35:29;;;;;;;0.60;0.60;;;;;;;-5.89;84.12;100751.19;5008671;28;20045;-83
2022/11/26 11:37:57;;;;;;;0.80;0.80;;;;;;;-5.85;84.23;100753.63;5008307;28;20091;-84
2022/11/26 11:40:27;;;;;;;0.80;0.80;;;;;;;-5.86;84.24;100744.88;5009045;28;20049;-82
2022/11/26 11:42:57;;;;;;;0.80;0.80;;;;;;;-5.89;84.39;100750.34;5006263;28;20058;-83